»·PEaware :: N6065L KSNA-KSNA

N6065L :: KSNA-KSNA

FLIGHT INFORMATION

Flight Status: Arrived
Operator: Privately registered:
United States
More flights under this callsign
Pilot: Kyle A. (14988)
Aircraft: CESSNA 172 SKYHAWK
(C172)
More flights by this aircraft type
Origin: KSNA John Wayne-Orange Co
United States
Destination: KSNA John Wayne-Orange Co
United States
More flights between these airports :: More routes between these airports
Route: +SLI
File this flight plan on PilotEdge
Remarks: I-1
Altitude:
(Current/Filed)
300ft
Speed:
(Current/Filed)
115kts
Departed: 28-Nov-17 10:34 AM
Arrived: 28-Nov-17 10:59 AM
Distance/Time
Traveled:
0nm/0:25
Distance/Time
To Go:
Arrived

Flight Plot

Page will automatically refresh every two minutes.


Map Options




Map Legend


Flown Route
Filed Route
Departure Airport
Arrival Airport
Navaid (VOR, NDB)
Fix

Horizontal Profiles

Position Reports

Time Latitude Longitude Heading Altitude Ground
Speed
28-Nov-17 10:23 33.675129 -117.871473 31 48ft 0kts
28-Nov-17 10:24 33.675129 -117.871473 31 48ft 0kts
28-Nov-17 10:25 33.675129 -117.871473 31 48ft 0kts
28-Nov-17 10:26 33.675129 -117.871473 31 48ft 0kts
28-Nov-17 10:27 33.675129 -117.871473 31 48ft 0kts
28-Nov-17 10:28 33.675129 -117.871473 31 48ft 0kts
28-Nov-17 10:29 33.675129 -117.871473 31 48ft 0kts
28-Nov-17 10:30 33.675129 -117.871473 31 48ft 0kts
28-Nov-17 10:31 33.675129 -117.871473 31 48ft 0kts
28-Nov-17 10:32 33.675129 -117.871473 31 48ft 0kts
28-Nov-17 10:33 33.675129 -117.871473 31 48ft 0kts
28-Nov-17 10:34 33.675265 -117.871283 55 48ft 7kts
28-Nov-17 10:35 33.677593 -117.869134 27 48ft 13kts
28-Nov-17 10:36 33.680920 -117.867212 30 48ft 12kts
28-Nov-17 10:37 33.681219 -117.866443 117 49ft 0kts
28-Nov-17 10:38 33.680643 -117.865692 202 49ft 14kts
28-Nov-17 10:39 33.666119 -117.877788 230 867ft 69kts
28-Nov-17 10:40 33.651850 -117.899128 232 1823ft 88kts
28-Nov-17 10:41 33.637407 -117.921397 232 2906ft 82kts
28-Nov-17 10:42 33.619141 -117.949934 232 2994ft 114kts
28-Nov-17 10:43 33.600044 -117.979711 231 2995ft 112kts
28-Nov-17 10:44 33.609313 -118.002312 20 2993ft 110kts
28-Nov-17 10:45 33.637734 -117.988296 21 2995ft 112kts
28-Nov-17 10:46 33.666873 -117.974180 21 2999ft 119kts
28-Nov-17 10:47 33.698560 -117.958778 21 2996ft 131kts
28-Nov-17 10:48 33.722774 -117.947048 21 3001ft 127kts
28-Nov-17 10:49 33.755085 -117.931372 21 3022ft 126kts
28-Nov-17 10:50 33.786222 -117.913662 31 3022ft 126kts
28-Nov-17 10:51 33.816068 -117.891268 31 3023ft 127kts
28-Nov-17 10:52 33.845998 -117.868780 31 3022ft 127kts
28-Nov-17 10:53 33.875821 -117.846380 31 3020ft 121kts
28-Nov-17 10:54 33.902677 -117.826223 31 3023ft 113kts
28-Nov-17 10:55 33.908828 -117.794822 111 3029ft 115kts
28-Nov-17 10:56 33.894035 -117.760827 152 3008ft 118kts
28-Nov-17 10:57 33.861096 -117.760759 181 3012ft 119kts
28-Nov-17 10:58 33.829916 -117.770610 208 3013ft 119kts
28-Nov-17 10:59 33.800106 -117.789801 207 2666ft 121kts
28-Nov-17 11:00 33.770211 -117.808856 207 2043ft 125kts
28-Nov-17 11:01 33.737638 -117.829554 208 1320ft 129kts
28-Nov-17 11:02 33.711840 -117.845918 207 765ft 87kts
28-Nov-17 11:03 33.693274 -117.857671 207 348ft 75kts
28-Nov-17 11:04 33.677755 -117.867585 205 49ft 37kts
28-Nov-17 11:05 33.675696 -117.870462 275 48ft 12kts
28-Nov-17 11:06 33.675973 -117.871219 216 49ft 0kts
28-Nov-17 11:07 33.675973 -117.871219 216 49ft 0kts
28-Nov-17 11:08 33.675973 -117.871219 216 49ft 0kts
28-Nov-17 11:09 33.675973 -117.871219 216 49ft 0kts
28-Nov-17 11:10 33.675973 -117.871219 216 49ft 0kts
28-Nov-17 11:11 33.675973 -117.871219 216 49ft 0kts
28-Nov-17 11:12 33.675973 -117.871219 216 49ft 0kts
28-Nov-17 11:13 33.675973 -117.871219 216 49ft 0kts
28-Nov-17 11:14 33.675973 -117.871219 216 49ft 0kts

Navigation Log

Ident Type
1. KSNA Airport
2. SLI Navaid
3. KSNA Airport